sensor_id;sensor_type;location;lat;lon;timestamp;P1;durP1;ratioP1;P2;durP2;ratioP2
68216;SDS011;55037;52.354;4.992;2024-01-30T00:00:19;8.10;;;5.05;;
68216;SDS011;55037;52.354;4.992;2024-01-30T00:02:47;7.70;;;5.07;;
68216;SDS011;55037;52.354;4.992;2024-01-30T00:05:15;9.60;;;4.45;;
68216;SDS011;55037;52.354;4.992;2024-01-30T00:07:42;8.23;;;4.93;;
68216;SDS011;55037;52.354;4.992;2024-01-30T00:10:10;13.45;;;5.75;;
68216;SDS011;55037;52.354;4.992;2024-01-30T00:12:38;6.18;;;3.95;;
68216;SDS011;55037;52.354;4.992;2024-01-30T00:15:05;9.87;;;5.10;;
68216;SDS011;55037;52.354;4.992;2024-01-30T00:17:36;9.52;;;5.80;;
68216;SDS011;55037;52.354;4.992;2024-01-30T00:20:04;9.30;;;5.30;;
68216;SDS011;55037;52.354;4.992;2024-01-30T00:22:32;6.88;;;4.30;;
68216;SDS011;55037;52.354;4.992;2024-01-30T00:25:00;8.55;;;3.97;;
68216;SDS011;55037;52.354;4.992;2024-01-30T00:27:28;10.57;;;5.77;;
68216;SDS011;55037;52.354;4.992;2024-01-30T00:29:55;7.72;;;4.90;;
68216;SDS011;55037;52.354;4.992;2024-01-30T00:32:23;7.68;;;4.93;;
68216;SDS011;55037;52.354;4.992;2024-01-30T00:34:50;5.78;;;3.65;;
68216;SDS011;55037;52.354;4.992;2024-01-30T00:37:18;6.43;;;4.20;;
68216;SDS011;55037;52.354;4.992;2024-01-30T00:39:46;8.07;;;4.77;;
68216;SDS011;55037;52.354;4.992;2024-01-30T00:42:13;7.72;;;4.63;;
68216;SDS011;55037;52.354;4.992;2024-01-30T00:44:41;6.82;;;4.63;;
68216;SDS011;55037;52.354;4.992;2024-01-30T00:47:13;13.55;;;7.18;;
68216;SDS011;55037;52.354;4.992;2024-01-30T00:49:41;9.65;;;5.18;;
68216;SDS011;55037;52.354;4.992;2024-01-30T00:52:09;6.47;;;3.83;;
68216;SDS011;55037;52.354;4.992;2024-01-30T00:54:37;7.53;;;4.53;;
68216;SDS011;55037;52.354;4.992;2024-01-30T00:57:04;5.93;;;3.65;;
68216;SDS011;55037;52.354;4.992;2024-01-30T00:59:32;10.15;;;5.35;;
68216;SDS011;55037;52.354;4.992;2024-01-30T01:02:02;7.18;;;4.93;;
68216;SDS011;55037;52.354;4.992;2024-01-30T01:04:30;5.63;;;3.43;;
68216;SDS011;55037;52.354;4.992;2024-01-30T01:06:58;8.68;;;4.85;;
68216;SDS011;55037;52.354;4.992;2024-01-30T01:09:26;7.38;;;4.93;;
68216;SDS011;55037;52.354;4.992;2024-01-30T01:11:53;6.47;;;4.30;;
68216;SDS011;55037;52.354;4.992;2024-01-30T01:14:21;6.72;;;4.25;;
68216;SDS011;55037;52.354;4.992;2024-01-30T01:16:49;5.47;;;3.58;;
68216;SDS011;55037;52.354;4.992;2024-01-30T01:19:16;6.75;;;4.00;;
68216;SDS011;55037;52.354;4.992;2024-01-30T01:21:44;7.32;;;4.80;;
68216;SDS011;55037;52.354;4.992;2024-01-30T01:24:11;4.03;;;2.85;;
68216;SDS011;55037;52.354;4.992;2024-01-30T01:26:39;8.55;;;4.05;;
68216;SDS011;55037;52.354;4.992;2024-01-30T01:29:07;5.17;;;3.70;;
68216;SDS011;55037;52.354;4.992;2024-01-30T01:31:38;9.95;;;4.20;;
68216;SDS011;55037;52.354;4.992;2024-01-30T01:34:10;8.82;;;5.18;;
68216;SDS011;55037;52.354;4.992;2024-01-30T01:36:39;7.70;;;4.85;;
68216;SDS011;55037;52.354;4.992;2024-01-30T01:39:06;8.80;;;4.65;;
68216;SDS011;55037;52.354;4.992;2024-01-30T01:41:35;8.07;;;5.20;;
68216;SDS011;55037;52.354;4.992;2024-01-30T01:44:03;5.82;;;3.85;;
68216;SDS011;55037;52.354;4.992;2024-01-30T01:46:32;12.98;;;4.85;;
68216;SDS011;55037;52.354;4.992;2024-01-30T01:49:01;8.15;;;4.72;;
68216;SDS011;55037;52.354;4.992;2024-01-30T01:51:31;7.22;;;4.82;;
68216;SDS011;55037;52.354;4.992;2024-01-30T01:53:59;6.57;;;4.43;;
68216;SDS011;55037;52.354;4.992;2024-01-30T01:56:28;10.20;;;4.57;;
68216;SDS011;55037;52.354;4.992;2024-01-30T01:58:57;9.32;;;4.50;;
68216;SDS011;55037;52.354;4.992;2024-01-30T02:01:27;6.18;;;4.13;;
68216;SDS011;55037;52.354;4.992;2024-01-30T02:03:55;7.00;;;4.57;;
68216;SDS011;55037;52.354;4.992;2024-01-30T02:06:23;4.60;;;3.20;;
68216;SDS011;55037;52.354;4.992;2024-01-30T02:08:50;5.25;;;3.67;;
68216;SDS011;55037;52.354;4.992;2024-01-30T02:11:18;6.72;;;4.47;;
68216;SDS011;55037;52.354;4.992;2024-01-30T02:13:47;7.82;;;4.45;;
68216;SDS011;55037;52.354;4.992;2024-01-30T02:16:14;8.30;;;4.40;;
68216;SDS011;55037;52.354;4.992;2024-01-30T02:18:44;10.97;;;3.57;;
68216;SDS011;55037;52.354;4.992;2024-01-30T02:21:15;6.53;;;3.38;;
68216;SDS011;55037;52.354;4.992;2024-01-30T02:23:43;7.05;;;4.28;;
68216;SDS011;55037;52.354;4.992;2024-01-30T02:26:11;7.00;;;4.80;;
68216;SDS011;55037;52.354;4.992;2024-01-30T02:28:39;6.47;;;4.38;;
68216;SDS011;55037;52.354;4.992;2024-01-30T02:31:06;7.73;;;3.90;;
68216;SDS011;55037;52.354;4.992;2024-01-30T02:33:34;7.70;;;4.38;;
68216;SDS011;55037;52.354;4.992;2024-01-30T02:36:02;9.32;;;4.88;;
68216;SDS011;55037;52.354;4.992;2024-01-30T02:38:29;7.35;;;3.63;;
68216;SDS011;55037;52.354;4.992;2024-01-30T02:40:57;8.30;;;5.32;;
68216;SDS011;55037;52.354;4.992;2024-01-30T02:43:25;6.37;;;4.27;;
68216;SDS011;55037;52.354;4.992;2024-01-30T02:45:52;7.45;;;4.93;;
68216;SDS011;55037;52.354;4.992;2024-01-30T02:48:20;6.63;;;4.30;;
68216;SDS011;55037;52.354;4.992;2024-01-30T02:50:48;5.13;;;3.53;;
68216;SDS011;55037;52.354;4.992;2024-01-30T02:53:15;7.72;;;4.90;;
68216;SDS011;55037;52.354;4.992;2024-01-30T02:55:43;8.57;;;4.60;;
68216;SDS011;55037;52.354;4.992;2024-01-30T02:58:10;5.10;;;3.80;;
68216;SDS011;55037;52.354;4.992;2024-01-30T03:00:38;7.35;;;4.90;;
68216;SDS011;55037;52.354;4.992;2024-01-30T03:03:06;7.93;;;4.50;;
68216;SDS011;55037;52.354;4.992;2024-01-30T03:05:33;5.05;;;3.47;;
68216;SDS011;55037;52.354;4.992;2024-01-30T03:08:01;6.70;;;4.20;;
68216;SDS011;55037;52.354;4.992;2024-01-30T03:10:29;10.68;;;4.90;;
68216;SDS011;55037;52.354;4.992;2024-01-30T03:12:56;7.03;;;4.50;;
68216;SDS011;55037;52.354;4.992;2024-01-30T03:15:24;7.05;;;4.28;;
68216;SDS011;55037;52.354;4.992;2024-01-30T03:17:53;7.45;;;4.10;;
68216;SDS011;55037;52.354;4.992;2024-01-30T03:20:20;6.70;;;3.97;;
68216;SDS011;55037;52.354;4.992;2024-01-30T03:22:48;6.70;;;4.15;;
68216;SDS011;55037;52.354;4.992;2024-01-30T03:25:16;6.65;;;3.40;;
68216;SDS011;55037;52.354;4.992;2024-01-30T03:27:43;6.72;;;3.90;;
68216;SDS011;55037;52.354;4.992;2024-01-30T03:30:11;6.53;;;4.03;;
68216;SDS011;55037;52.354;4.992;2024-01-30T03:32:39;6.87;;;4.23;;
68216;SDS011;55037;52.354;4.992;2024-01-30T03:35:07;6.65;;;3.63;;
68216;SDS011;55037;52.354;4.992;2024-01-30T03:37:34;3.75;;;2.85;;
68216;SDS011;55037;52.354;4.992;2024-01-30T03:40:02;7.35;;;4.82;;
68216;SDS011;55037;52.354;4.992;2024-01-30T03:42:30;6.78;;;4.03;;
68216;SDS011;55037;52.354;4.992;2024-01-30T03:44:57;7.40;;;4.23;;
68216;SDS011;55037;52.354;4.992;2024-01-30T03:47:25;4.45;;;3.33;;
68216;SDS011;55037;52.354;4.992;2024-01-30T03:49:53;6.78;;;3.92;;
68216;SDS011;55037;52.354;4.992;2024-01-30T03:52:20;7.78;;;4.78;;
68216;SDS011;55037;52.354;4.992;2024-01-30T03:54:48;8.65;;;4.05;;
68216;SDS011;55037;52.354;4.992;2024-01-30T03:57:16;6.67;;;4.53;;
68216;SDS011;55037;52.354;4.992;2024-01-30T03:59:43;6.38;;;4.20;;
68216;SDS011;55037;52.354;4.992;2024-01-30T04:02:11;6.05;;;3.10;;
68216;SDS011;55037;52.354;4.992;2024-01-30T04:04:39;8.18;;;4.50;;
68216;SDS011;55037;52.354;4.992;2024-01-30T04:07:07;11.57;;;4.55;;
68216;SDS011;55037;52.354;4.992;2024-01-30T04:09:35;8.27;;;4.53;;
68216;SDS011;55037;52.354;4.992;2024-01-30T04:12:02;5.90;;;4.00;;
68216;SDS011;55037;52.354;4.992;2024-01-30T04:14:30;4.93;;;3.25;;
68216;SDS011;55037;52.354;4.992;2024-01-30T04:16:58;5.80;;;3.42;;
68216;SDS011;55037;52.354;4.992;2024-01-30T04:19:25;10.23;;;6.13;;
68216;SDS011;55037;52.354;4.992;2024-01-30T04:21:53;5.50;;;3.33;;
68216;SDS011;55037;52.354;4.992;2024-01-30T04:24:21;9.00;;;4.95;;
68216;SDS011;55037;52.354;4.992;2024-01-30T04:26:48;8.55;;;4.45;;
68216;SDS011;55037;52.354;4.992;2024-01-30T04:29:18;7.10;;;3.67;;
68216;SDS011;55037;52.354;4.992;2024-01-30T04:31:46;7.25;;;3.10;;
68216;SDS011;55037;52.354;4.992;2024-01-30T04:34:14;7.17;;;3.63;;
68216;SDS011;55037;52.354;4.992;2024-01-30T04:36:43;6.25;;;3.35;;
68216;SDS011;55037;52.354;4.992;2024-01-30T04:39:12;4.95;;;3.58;;
68216;SDS011;55037;52.354;4.992;2024-01-30T04:41:39;7.97;;;4.50;;
68216;SDS011;55037;52.354;4.992;2024-01-30T04:44:07;7.95;;;3.97;;
68216;SDS011;55037;52.354;4.992;2024-01-30T04:46:35;8.27;;;4.63;;
68216;SDS011;55037;52.354;4.992;2024-01-30T04:49:02;5.95;;;4.13;;
68216;SDS011;55037;52.354;4.992;2024-01-30T04:51:30;8.50;;;4.75;;
68216;SDS011;55037;52.354;4.992;2024-01-30T04:53:58;5.93;;;4.00;;
68216;SDS011;55037;52.354;4.992;2024-01-30T04:56:25;6.13;;;4.25;;
68216;SDS011;55037;52.354;4.992;2024-01-30T04:58:54;4.50;;;3.25;;
68216;SDS011;55037;52.354;4.992;2024-01-30T05:01:22;8.55;;;4.15;;
68216;SDS011;55037;52.354;4.992;2024-01-30T05:03:49;7.65;;;4.35;;
68216;SDS011;55037;52.354;4.992;2024-01-30T05:06:23;8.80;;;5.10;;
68216;SDS011;55037;52.354;4.992;2024-01-30T05:08:52;6.63;;;4.03;;
68216;SDS011;55037;52.354;4.992;2024-01-30T05:11:19;7.07;;;4.73;;
68216;SDS011;55037;52.354;4.992;2024-01-30T05:13:47;7.65;;;3.65;;
68216;SDS011;55037;52.354;4.992;2024-01-30T05:16:14;6.50;;;3.88;;
68216;SDS011;55037;52.354;4.992;2024-01-30T05:18:42;9.20;;;5.20;;
68216;SDS011;55037;52.354;4.992;2024-01-30T05:21:10;6.47;;;4.75;;
68216;SDS011;55037;52.354;4.992;2024-01-30T05:23:37;7.65;;;4.75;;
68216;SDS011;55037;52.354;4.992;2024-01-30T05:26:05;6.47;;;3.83;;
68216;SDS011;55037;52.354;4.992;2024-01-30T05:28:33;9.50;;;4.68;;
68216;SDS011;55037;52.354;4.992;2024-01-30T05:31:00;5.93;;;4.22;;
68216;SDS011;55037;52.354;4.992;2024-01-30T05:33:28;6.65;;;4.00;;
68216;SDS011;55037;52.354;4.992;2024-01-30T05:35:56;7.40;;;4.23;;
68216;SDS011;55037;52.354;4.992;2024-01-30T05:38:23;9.02;;;5.10;;
68216;SDS011;55037;52.354;4.992;2024-01-30T05:40:51;8.95;;;3.80;;
68216;SDS011;55037;52.354;4.992;2024-01-30T05:43:19;6.45;;;4.00;;
68216;SDS011;55037;52.354;4.992;2024-01-30T05:45:46;6.03;;;3.30;;
68216;SDS011;55037;52.354;4.992;2024-01-30T05:48:14;6.63;;;3.67;;
68216;SDS011;55037;52.354;4.992;2024-01-30T05:50:41;7.07;;;3.88;;
68216;SDS011;55037;52.354;4.992;2024-01-30T05:53:09;9.50;;;4.95;;
68216;SDS011;55037;52.354;4.992;2024-01-30T05:55:37;9.45;;;5.10;;
68216;SDS011;55037;52.354;4.992;2024-01-30T05:58:04;4.82;;;3.60;;
68216;SDS011;55037;52.354;4.992;2024-01-30T06:00:32;7.17;;;3.90;;
68216;SDS011;55037;52.354;4.992;2024-01-30T06:03:00;6.72;;;4.00;;
68216;SDS011;55037;52.354;4.992;2024-01-30T06:05:27;5.90;;;3.88;;
68216;SDS011;55037;52.354;4.992;2024-01-30T06:07:55;7.40;;;4.97;;
68216;SDS011;55037;52.354;4.992;2024-01-30T06:10:23;7.97;;;4.93;;
68216;SDS011;55037;52.354;4.992;2024-01-30T06:12:50;5.93;;;3.97;;
68216;SDS011;55037;52.354;4.992;2024-01-30T06:15:18;8.18;;;4.32;;
68216;SDS011;55037;52.354;4.992;2024-01-30T06:17:45;8.85;;;3.97;;
68216;SDS011;55037;52.354;4.992;2024-01-30T06:20:13;5.85;;;3.53;;
68216;SDS011;55037;52.354;4.992;2024-01-30T06:22:41;5.15;;;3.38;;
68216;SDS011;55037;52.354;4.992;2024-01-30T06:25:08;7.63;;;4.20;;
68216;SDS011;55037;52.354;4.992;2024-01-30T06:27:36;6.13;;;3.80;;
68216;SDS011;55037;52.354;4.992;2024-01-30T06:30:04;4.05;;;2.67;;
68216;SDS011;55037;52.354;4.992;2024-01-30T06:32:32;8.63;;;3.70;;
68216;SDS011;55037;52.354;4.992;2024-01-30T06:35:01;5.45;;;3.92;;
68216;SDS011;55037;52.354;4.992;2024-01-30T06:37:29;5.90;;;3.70;;
68216;SDS011;55037;52.354;4.992;2024-01-30T06:39:56;6.03;;;4.00;;
68216;SDS011;55037;52.354;4.992;2024-01-30T06:42:24;5.30;;;3.83;;
68216;SDS011;55037;52.354;4.992;2024-01-30T06:44:54;4.32;;;3.67;;
68216;SDS011;55037;52.354;4.992;2024-01-30T06:47:22;8.48;;;4.53;;
68216;SDS011;55037;52.354;4.992;2024-01-30T06:49:49;7.43;;;4.57;;
68216;SDS011;55037;52.354;4.992;2024-01-30T06:52:17;5.20;;;3.90;;
68216;SDS011;55037;52.354;4.992;2024-01-30T06:54:44;6.63;;;4.20;;
68216;SDS011;55037;52.354;4.992;2024-01-30T06:57:12;5.00;;;3.40;;
68216;SDS011;55037;52.354;4.992;2024-01-30T06:59:40;8.93;;;4.97;;
68216;SDS011;55037;52.354;4.992;2024-01-30T07:02:10;8.43;;;4.83;;
68216;SDS011;55037;52.354;4.992;2024-01-30T07:04:38;9.18;;;4.28;;
68216;SDS011;55037;52.354;4.992;2024-01-30T07:07:12;9.95;;;4.13;;
68216;SDS011;55037;52.354;4.992;2024-01-30T07:09:41;7.13;;;3.88;;
68216;SDS011;55037;52.354;4.992;2024-01-30T07:12:09;7.53;;;4.45;;
68216;SDS011;55037;52.354;4.992;2024-01-30T07:14:37;6.93;;;4.43;;
68216;SDS011;55037;52.354;4.992;2024-01-30T07:17:04;6.97;;;4.40;;
68216;SDS011;55037;52.354;4.992;2024-01-30T07:19:32;6.15;;;3.95;;
68216;SDS011;55037;52.354;4.992;2024-01-30T07:22:01;7.47;;;3.08;;
68216;SDS011;55037;52.354;4.992;2024-01-30T07:24:28;5.20;;;4.07;;
68216;SDS011;55037;52.354;4.992;2024-01-30T07:26:56;5.63;;;3.77;;
68216;SDS011;55037;52.354;4.992;2024-01-30T07:29:24;6.60;;;4.10;;
68216;SDS011;55037;52.354;4.992;2024-01-30T07:31:52;8.38;;;3.75;;
68216;SDS011;55037;52.354;4.992;2024-01-30T07:34:20;5.18;;;3.33;;
68216;SDS011;55037;52.354;4.992;2024-01-30T07:36:48;9.98;;;4.57;;
68216;SDS011;55037;52.354;4.992;2024-01-30T07:39:18;7.20;;;3.97;;
68216;SDS011;55037;52.354;4.992;2024-01-30T07:41:46;6.68;;;4.90;;
68216;SDS011;55037;52.354;4.992;2024-01-30T07:44:13;7.82;;;4.57;;
68216;SDS011;55037;52.354;4.992;2024-01-30T07:46:41;5.28;;;3.58;;
68216;SDS011;55037;52.354;4.992;2024-01-30T07:49:08;6.82;;;4.15;;
68216;SDS011;55037;52.354;4.992;2024-01-30T07:51:37;7.32;;;4.28;;
68216;SDS011;55037;52.354;4.992;2024-01-30T07:54:04;6.32;;;4.07;;
68216;SDS011;55037;52.354;4.992;2024-01-30T07:56:41;8.13;;;4.03;;
68216;SDS011;55037;52.354;4.992;2024-01-30T07:59:09;5.97;;;2.88;;
68216;SDS011;55037;52.354;4.992;2024-01-30T08:01:39;7.35;;;4.13;;
68216;SDS011;55037;52.354;4.992;2024-01-30T08:04:07;8.07;;;5.10;;
68216;SDS011;55037;52.354;4.992;2024-01-30T08:06:34;8.95;;;4.75;;
68216;SDS011;55037;52.354;4.992;2024-01-30T08:09:02;5.43;;;3.60;;
68216;SDS011;55037;52.354;4.992;2024-01-30T08:11:31;7.28;;;4.55;;
68216;SDS011;55037;52.354;4.992;2024-01-30T08:13:58;7.00;;;3.92;;
68216;SDS011;55037;52.354;4.992;2024-01-30T08:16:26;5.17;;;3.60;;
68216;SDS011;55037;52.354;4.992;2024-01-30T08:18:54;6.75;;;4.43;;
68216;SDS011;55037;52.354;4.992;2024-01-30T08:21:24;8.07;;;3.78;;
68216;SDS011;55037;52.354;4.992;2024-01-30T08:23:52;6.47;;;4.10;;
68216;SDS011;55037;52.354;4.992;2024-01-30T08:26:19;7.03;;;4.32;;
68216;SDS011;55037;52.354;4.992;2024-01-30T08:28:47;6.00;;;3.43;;
68216;SDS011;55037;52.354;4.992;2024-01-30T08:31:15;7.28;;;3.75;;
68216;SDS011;55037;52.354;4.992;2024-01-30T08:33:43;7.47;;;5.00;;
68216;SDS011;55037;52.354;4.992;2024-01-30T08:36:13;8.30;;;4.68;;
68216;SDS011;55037;52.354;4.992;2024-01-30T08:38:41;6.75;;;3.70;;
68216;SDS011;55037;52.354;4.992;2024-01-30T08:41:08;7.68;;;4.50;;
68216;SDS011;55037;52.354;4.992;2024-01-30T08:43:36;7.28;;;3.97;;
68216;SDS011;55037;52.354;4.992;2024-01-30T08:46:04;9.45;;;4.53;;
68216;SDS011;55037;52.354;4.992;2024-01-30T08:48:31;5.55;;;3.67;;
68216;SDS011;55037;52.354;4.992;2024-01-30T08:50:59;5.80;;;3.80;;
68216;SDS011;55037;52.354;4.992;2024-01-30T08:53:27;8.00;;;3.83;;
68216;SDS011;55037;52.354;4.992;2024-01-30T08:55:54;5.78;;;3.70;;
68216;SDS011;55037;52.354;4.992;2024-01-30T08:58:22;9.07;;;4.10;;
68216;SDS011;55037;52.354;4.992;2024-01-30T09:00:50;7.47;;;3.97;;
68216;SDS011;55037;52.354;4.992;2024-01-30T09:03:19;6.95;;;4.28;;
68216;SDS011;55037;52.354;4.992;2024-01-30T09:05:47;8.77;;;3.70;;
68216;SDS011;55037;52.354;4.992;2024-01-30T09:08:14;6.15;;;3.72;;
68216;SDS011;55037;52.354;4.992;2024-01-30T09:10:42;7.28;;;3.35;;
68216;SDS011;55037;52.354;4.992;2024-01-30T09:13:11;7.28;;;4.15;;
68216;SDS011;55037;52.354;4.992;2024-01-30T09:15:39;6.43;;;3.75;;
68216;SDS011;55037;52.354;4.992;2024-01-30T09:18:06;6.25;;;4.22;;
68216;SDS011;55037;52.354;4.992;2024-01-30T09:20:34;7.80;;;4.20;;
68216;SDS011;55037;52.354;4.992;2024-01-30T09:23:01;8.20;;;4.40;;
68216;SDS011;55037;52.354;4.992;2024-01-30T09:25:29;5.72;;;3.67;;
68216;SDS011;55037;52.354;4.992;2024-01-30T09:27:57;9.57;;;4.35;;
68216;SDS011;55037;52.354;4.992;2024-01-30T09:30:25;11.38;;;5.93;;
68216;SDS011;55037;52.354;4.992;2024-01-30T09:32:52;7.00;;;4.55;;
68216;SDS011;55037;52.354;4.992;2024-01-30T09:35:20;8.88;;;4.97;;
68216;SDS011;55037;52.354;4.992;2024-01-30T09:37:48;6.80;;;3.85;;
68216;SDS011;55037;52.354;4.992;2024-01-30T09:40:15;5.60;;;4.03;;
68216;SDS011;55037;52.354;4.992;2024-01-30T09:42:49;9.30;;;4.30;;
68216;SDS011;55037;52.354;4.992;2024-01-30T09:45:17;11.68;;;5.20;;
68216;SDS011;55037;52.354;4.992;2024-01-30T09:47:46;8.10;;;4.20;;
68216;SDS011;55037;52.354;4.992;2024-01-30T09:50:14;10.20;;;4.88;;
68216;SDS011;55037;52.354;4.992;2024-01-30T09:52:45;9.40;;;4.43;;
68216;SDS011;55037;52.354;4.992;2024-01-30T09:55:13;6.60;;;4.55;;
68216;SDS011;55037;52.354;4.992;2024-01-30T09:57:41;11.15;;;3.95;;
68216;SDS011;55037;52.354;4.992;2024-01-30T10:00:09;7.30;;;4.30;;
68216;SDS011;55037;52.354;4.992;2024-01-30T10:02:39;7.78;;;4.30;;
68216;SDS011;55037;52.354;4.992;2024-01-30T10:05:07;6.88;;;4.90;;
68216;SDS011;55037;52.354;4.992;2024-01-30T10:07:35;5.97;;;4.38;;
68216;SDS011;55037;52.354;4.992;2024-01-30T10:10:05;7.70;;;4.32;;
68216;SDS011;55037;52.354;4.992;2024-01-30T10:12:33;10.40;;;5.22;;
68216;SDS011;55037;52.354;4.992;2024-01-30T10:15:01;9.90;;;4.60;;
68216;SDS011;55037;52.354;4.992;2024-01-30T10:17:29;10.07;;;3.42;;
68216;SDS011;55037;52.354;4.992;2024-01-30T10:20:00;5.70;;;3.00;;
68216;SDS011;55037;52.354;4.992;2024-01-30T10:22:28;6.90;;;2.40;;
68216;SDS011;55037;52.354;4.992;2024-01-30T10:24:56;6.38;;;3.40;;
68216;SDS011;55037;52.354;4.992;2024-01-30T10:27:27;7.80;;;2.60;;
68216;SDS011;55037;52.354;4.992;2024-01-30T10:29:56;6.22;;;2.13;;
68216;SDS011;55037;52.354;4.992;2024-01-30T10:32:24;6.03;;;2.53;;
68216;SDS011;55037;52.354;4.992;2024-01-30T10:34:52;3.83;;;2.00;;
68216;SDS011;55037;52.354;4.992;2024-01-30T10:37:20;5.32;;;2.60;;
68216;SDS011;55037;52.354;4.992;2024-01-30T10:39:49;3.53;;;1.40;;
68216;SDS011;55037;52.354;4.992;2024-01-30T10:42:19;4.63;;;1.42;;
68216;SDS011;55037;52.354;4.992;2024-01-30T10:45:06;2.50;;;1.37;;
68216;SDS011;55037;52.354;4.992;2024-01-30T10:47:43;3.35;;;0.98;;
68216;SDS011;55037;52.354;4.992;2024-01-30T10:50:11;8.05;;;1.25;;
68216;SDS011;55037;52.354;4.992;2024-01-30T10:52:41;2.95;;;1.20;;
68216;SDS011;55037;52.354;4.992;2024-01-30T10:55:09;2.70;;;1.15;;
68216;SDS011;55037;52.354;4.992;2024-01-30T10:57:37;3.13;;;1.27;;
68216;SDS011;55037;52.354;4.992;2024-01-30T11:00:06;3.65;;;1.15;;
68216;SDS011;55037;52.354;4.992;2024-01-30T11:02:38;10.90;;;1.60;;
68216;SDS011;55037;52.354;4.992;2024-01-30T11:05:07;2.92;;;1.00;;
68216;SDS011;55037;52.354;4.992;2024-01-30T11:07:35;2.60;;;1.00;;
68216;SDS011;55037;52.354;4.992;2024-01-30T11:10:03;2.03;;;1.00;;
68216;SDS011;55037;52.354;4.992;2024-01-30T11:12:31;3.03;;;1.08;;
68216;SDS011;55037;52.354;4.992;2024-01-30T11:20:21;2.28;;;0.77;;
68216;SDS011;55037;52.354;4.992;2024-01-30T11:22:50;2.60;;;1.00;;
68216;SDS011;55037;52.354;4.992;2024-01-30T11:25:21;3.20;;;0.88;;
68216;SDS011;55037;52.354;4.992;2024-01-30T11:27:50;2.58;;;0.98;;
68216;SDS011;55037;52.354;4.992;2024-01-30T11:35:43;3.80;;;0.90;;
68216;SDS011;55037;52.354;4.992;2024-01-30T11:38:13;3.00;;;0.90;;
68216;SDS011;55037;52.354;4.992;2024-01-30T11:40:41;2.85;;;1.20;;
68216;SDS011;55037;52.354;4.992;2024-01-30T11:43:16;2.30;;;1.13;;
68216;SDS011;55037;52.354;4.992;2024-01-30T11:45:44;1.53;;;0.90;;
68216;SDS011;55037;52.354;4.992;2024-01-30T11:48:12;2.88;;;1.33;;
68216;SDS011;55037;52.354;4.992;2024-01-30T11:50:40;4.78;;;1.35;;
68216;SDS011;55037;52.354;4.992;2024-01-30T11:53:08;1.83;;;0.80;;
68216;SDS011;55037;52.354;4.992;2024-01-30T11:55:36;4.90;;;1.00;;
68216;SDS011;55037;52.354;4.992;2024-01-30T11:58:04;5.50;;;1.90;;
68216;SDS011;55037;52.354;4.992;2024-01-30T12:00:32;4.80;;;1.67;;
68216;SDS011;55037;52.354;4.992;2024-01-30T12:03:02;3.85;;;1.30;;
68216;SDS011;55037;52.354;4.992;2024-01-30T12:05:31;7.63;;;1.30;;
68216;SDS011;55037;52.354;4.992;2024-01-30T12:07:59;3.92;;;1.30;;
68216;SDS011;55037;52.354;4.992;2024-01-30T12:10:28;5.63;;;1.87;;
68216;SDS011;55037;52.354;4.992;2024-01-30T12:12:57;5.57;;;1.27;;
68216;SDS011;55037;52.354;4.992;2024-01-30T12:15:25;2.13;;;1.00;;
68216;SDS011;55037;52.354;4.992;2024-01-30T12:18:03;7.93;;;1.98;;
68216;SDS011;55037;52.354;4.992;2024-01-30T12:20:31;4.85;;;1.45;;
68216;SDS011;55037;52.354;4.992;2024-01-30T12:22:58;5.13;;;1.47;;
68216;SDS011;55037;52.354;4.992;2024-01-30T12:25:26;6.07;;;1.48;;
68216;SDS011;55037;52.354;4.992;2024-01-30T12:27:54;3.60;;;1.15;;
68216;SDS011;55037;52.354;4.992;2024-01-30T12:30:22;3.22;;;1.40;;
68216;SDS011;55037;52.354;4.992;2024-01-30T12:32:50;4.07;;;1.33;;
68216;SDS011;55037;52.354;4.992;2024-01-30T12:35:19;2.90;;;1.23;;
68216;SDS011;55037;52.354;4.992;2024-01-30T12:37:48;3.22;;;1.23;;
68216;SDS011;55037;52.354;4.992;2024-01-30T12:40:17;9.52;;;1.65;;
68216;SDS011;55037;52.354;4.992;2024-01-30T12:42:46;4.10;;;1.20;;
68216;SDS011;55037;52.354;4.992;2024-01-30T12:45:17;4.05;;;1.60;;
68216;SDS011;55037;52.354;4.992;2024-01-30T12:47:50;4.27;;;1.50;;
68216;SDS011;55037;52.354;4.992;2024-01-30T12:50:18;4.90;;;2.00;;
68216;SDS011;55037;52.354;4.992;2024-01-30T12:52:45;5.15;;;1.70;;
68216;SDS011;55037;52.354;4.992;2024-01-30T12:55:16;2.63;;;1.23;;
68216;SDS011;55037;52.354;4.992;2024-01-30T12:57:44;6.10;;;1.70;;
68216;SDS011;55037;52.354;4.992;2024-01-30T13:00:12;8.57;;;2.00;;
68216;SDS011;55037;52.354;4.992;2024-01-30T13:02:40;2.97;;;1.15;;
68216;SDS011;55037;52.354;4.992;2024-01-30T13:05:09;4.35;;;1.73;;
68216;SDS011;55037;52.354;4.992;2024-01-30T13:07:37;5.97;;;1.50;;
68216;SDS011;55037;52.354;4.992;2024-01-30T13:10:05;3.53;;;1.60;;
68216;SDS011;55037;52.354;4.992;2024-01-30T13:12:32;8.97;;;1.30;;
68216;SDS011;55037;52.354;4.992;2024-01-30T13:15:01;4.95;;;1.70;;
68216;SDS011;55037;52.354;4.992;2024-01-30T13:17:30;2.53;;;1.50;;
68216;SDS011;55037;52.354;4.992;2024-01-30T13:19:58;4.43;;;2.20;;
68216;SDS011;55037;52.354;4.992;2024-01-30T13:22:37;3.45;;;1.30;;
68216;SDS011;55037;52.354;4.992;2024-01-30T13:25:06;2.53;;;1.30;;
68216;SDS011;55037;52.354;4.992;2024-01-30T13:27:38;5.07;;;1.95;;
68216;SDS011;55037;52.354;4.992;2024-01-30T13:30:06;5.72;;;1.55;;
68216;SDS011;55037;52.354;4.992;2024-01-30T13:32:35;3.88;;;1.67;;
68216;SDS011;55037;52.354;4.992;2024-01-30T13:35:03;8.52;;;1.80;;
68216;SDS011;55037;52.354;4.992;2024-01-30T13:37:31;3.97;;;1.87;;
68216;SDS011;55037;52.354;4.992;2024-01-30T13:39:59;6.03;;;2.17;;
68216;SDS011;55037;52.354;4.992;2024-01-30T13:42:30;3.50;;;1.70;;
68216;SDS011;55037;52.354;4.992;2024-01-30T13:44:58;3.08;;;1.77;;
68216;SDS011;55037;52.354;4.992;2024-01-30T13:47:26;2.75;;;1.23;;
68216;SDS011;55037;52.354;4.992;2024-01-30T13:49:53;5.40;;;1.50;;
68216;SDS011;55037;52.354;4.992;2024-01-30T13:52:21;2.67;;;1.33;;
68216;SDS011;55037;52.354;4.992;2024-01-30T13:54:57;7.10;;;1.65;;
68216;SDS011;55037;52.354;4.992;2024-01-30T13:57:25;2.90;;;1.42;;
68216;SDS011;55037;52.354;4.992;2024-01-30T13:59:52;3.35;;;1.75;;
68216;SDS011;55037;52.354;4.992;2024-01-30T14:02:20;3.30;;;1.50;;
68216;SDS011;55037;52.354;4.992;2024-01-30T14:04:47;2.45;;;1.40;;
68216;SDS011;55037;52.354;4.992;2024-01-30T14:07:15;3.08;;;1.60;;
68216;SDS011;55037;52.354;4.992;2024-01-30T14:09:45;3.35;;;1.77;;
68216;SDS011;55037;52.354;4.992;2024-01-30T14:12:12;2.92;;;2.00;;
68216;SDS011;55037;52.354;4.992;2024-01-30T14:14:40;3.60;;;1.40;;
68216;SDS011;55037;52.354;4.992;2024-01-30T14:17:08;2.70;;;1.60;;
68216;SDS011;55037;52.354;4.992;2024-01-30T14:19:35;4.95;;;1.63;;
68216;SDS011;55037;52.354;4.992;2024-01-30T14:22:03;2.70;;;1.55;;
68216;SDS011;55037;52.354;4.992;2024-01-30T14:24:31;3.22;;;1.42;;
68216;SDS011;55037;52.354;4.992;2024-01-30T14:26:59;2.60;;;1.33;;
68216;SDS011;55037;52.354;4.992;2024-01-30T14:29:26;2.97;;;1.60;;
68216;SDS011;55037;52.354;4.992;2024-01-30T14:31:54;2.38;;;1.33;;
68216;SDS011;55037;52.354;4.992;2024-01-30T14:34:22;6.53;;;1.50;;
68216;SDS011;55037;52.354;4.992;2024-01-30T14:36:50;2.42;;;1.65;;
68216;SDS011;55037;52.354;4.992;2024-01-30T14:39:18;2.47;;;1.63;;
68216;SDS011;55037;52.354;4.992;2024-01-30T14:41:46;4.00;;;1.30;;
68216;SDS011;55037;52.354;4.992;2024-01-30T14:44:13;5.53;;;1.83;;
68216;SDS011;55037;52.354;4.992;2024-01-30T14:46:41;4.18;;;2.30;;
68216;SDS011;55037;52.354;4.992;2024-01-30T14:49:08;3.65;;;2.05;;
68216;SDS011;55037;52.354;4.992;2024-01-30T14:51:36;2.00;;;1.30;;
68216;SDS011;55037;52.354;4.992;2024-01-30T14:54:04;3.47;;;1.80;;
68216;SDS011;55037;52.354;4.992;2024-01-30T14:56:32;3.35;;;1.70;;
68216;SDS011;55037;52.354;4.992;2024-01-30T14:58:59;3.13;;;1.42;;
68216;SDS011;55037;52.354;4.992;2024-01-30T15:01:27;2.60;;;1.48;;
68216;SDS011;55037;52.354;4.992;2024-01-30T15:03:55;2.10;;;1.37;;